DLH113 LTAI-EDDM
Flight info
| Callsign | DLH113 |
|---|---|
| Flight time | 2h 46m |
| Altitude | 36000 |
| Route | EKNUD UQ26 DIGBO UL615 VADEN Y520 OSTEX DCT UTEKA/N0466F380 DCT DONIV DCT BABIT DCT GOTAR DCT AMADI Q113 NAPSA NAPSA1B |
| Aircraft | A346/H-SDE2E3FGHIJ3J4J5M1RWXY/LB1D1 |
Departure
| Time | 2026-05-06 17:00 |
|---|---|
| Airport | Antalya International Airport (LTAI) |
Arrival
| Time | 2026-05-06 19:46 |
|---|---|
| Airport | Munich Airport (EDDM) |
| Time | Latitude | Longitude | Altitude | Speed | Heading |
|---|---|---|---|---|---|
| 2026-05-06 16:26 | 36.89718 | 30.79730 | 205 ft | 0 kts | 15° |
| 2026-05-06 16:47 | 36.89703 | 30.79725 | 214 ft | 3 kts | 15° |
| 2026-05-06 16:47 | 36.89683 | 30.79719 | 208 ft | 3 kts | 15° |
| 2026-05-06 16:47 | 36.89666 | 30.79713 | 214 ft | 3 kts | 20° |
| 2026-05-06 16:47 | 36.89656 | 30.79706 | 214 ft | 3 kts | 50° |
| 2026-05-06 16:48 | 36.89650 | 30.79692 | 214 ft | 3 kts | 79° |
| 2026-05-06 16:48 | 36.89648 | 30.79668 | 211 ft | 3 kts | 92° |
| 2026-05-06 16:48 | 36.89650 | 30.79645 | 213 ft | 1 kts | 96° |
| 2026-05-06 16:48 | 36.89650 | 30.79644 | 213 ft | 0 kts | 96° |
| 2026-05-06 16:52 | 36.89649 | 30.79657 | 212 ft | 4 kts | 96° |
| 2026-05-06 16:52 | 36.89644 | 30.79712 | 209 ft | 9 kts | 96° |
| 2026-05-06 16:53 | 36.89634 | 30.79817 | 198 ft | 15 kts | 96° |
| 2026-05-06 16:53 | 36.89621 | 30.79968 | 198 ft | 20 kts | 96° |
| 2026-05-06 16:53 | 36.89604 | 30.80147 | 207 ft | 22 kts | 96° |
| 2026-05-06 16:53 | 36.89587 | 30.80339 | 205 ft | 23 kts | 96° |
| 2026-05-06 16:54 | 36.89571 | 30.80532 | 200 ft | 15 kts | 96° |
| 2026-05-06 16:54 | 36.89563 | 30.80631 | 197 ft | 12 kts | 88° |
| 2026-05-06 16:54 | 36.89615 | 30.80697 | 198 ft | 12 kts | 11° |
| 2026-05-06 16:54 | 36.89709 | 30.80711 | 199 ft | 16 kts | 6° |
| 2026-05-06 16:55 | 36.89850 | 30.80730 | 198 ft | 22 kts | 6° |
| 2026-05-06 16:55 | 36.90013 | 30.80752 | 198 ft | 24 kts | 6° |
| 2026-05-06 16:55 | 36.90183 | 30.80775 | 200 ft | 26 kts | 6° |
| 2026-05-06 16:55 | 36.90367 | 30.80800 | 202 ft | 27 kts | 6° |
| 2026-05-06 16:56 | 36.90559 | 30.80827 | 198 ft | 28 kts | 6° |
| 2026-05-06 16:56 | 36.90754 | 30.80853 | 202 ft | 27 kts | 6° |
| 2026-05-06 16:56 | 36.90940 | 30.80879 | 199 ft | 27 kts | 6° |
| 2026-05-06 16:56 | 36.91067 | 30.80897 | 199 ft | 12 kts | 6° |
| 2026-05-06 16:57 | 36.91133 | 30.80958 | 205 ft | 13 kts | 76° |
| 2026-05-06 16:57 | 36.91132 | 30.81051 | 197 ft | 7 kts | 96° |
| 2026-05-06 16:57 | 36.91114 | 30.81117 | 201 ft | 9 kts | 137° |
| 2026-05-06 16:57 | 36.91053 | 30.81132 | 198 ft | 4 kts | 185° |
| 2026-05-06 16:58 | 36.91039 | 30.81131 | 197 ft | 0 kts | 186° |
| 2026-05-06 16:58 | 36.91037 | 30.81130 | 197 ft | 1 kts | 186° |
| 2026-05-06 16:58 | 36.90934 | 30.81117 | 197 ft | 42 kts | 186° |
| 2026-05-06 16:59 | 36.90435 | 30.81048 | 200 ft | 101 kts | 186° |
| 2026-05-06 16:59 | 36.89561 | 30.80930 | 197 ft | 150 kts | 186° |
| 2026-05-06 16:59 | 36.88377 | 30.80770 | 282 ft | 184 kts | 185° |
| 2026-05-06 16:59 | 36.87055 | 30.80639 | 691 ft | 196 kts | 182° |
| 2026-05-06 17:00 | 36.85673 | 30.80707 | 1311 ft | 200 kts | 171° |
| 2026-05-06 17:00 | 36.84323 | 30.81129 | 2001 ft | 199 kts | 165° |
| 2026-05-06 17:00 | 36.82955 | 30.81526 | 2474 ft | 208 kts | 168° |
| 2026-05-06 17:00 | 36.81496 | 30.81907 | 2884 ft | 218 kts | 168° |
| 2026-05-06 17:01 | 36.80004 | 30.82345 | 3470 ft | 221 kts | 163° |
| 2026-05-06 17:01 | 36.78554 | 30.83042 | 3969 ft | 229 kts | 155° |
| 2026-05-06 17:01 | 36.77054 | 30.83922 | 4273 ft | 248 kts | 153° |
| 2026-05-06 17:01 | 36.75451 | 30.84924 | 4644 ft | 266 kts | 147° |
| 2026-05-06 17:02 | 36.74132 | 30.86566 | 5167 ft | 273 kts | 116° |
| 2026-05-06 17:02 | 36.73592 | 30.88815 | 5943 ft | 272 kts | 94° |
| 2026-05-06 17:02 | 36.73418 | 30.91174 | 6725 ft | 275 kts | 92° |
| 2026-05-06 17:02 | 36.73258 | 30.93575 | 7456 ft | 280 kts | 92° |
| 2026-05-06 17:03 | 36.73085 | 30.96016 | 8219 ft | 284 kts | 92° |
| 2026-05-06 17:03 | 36.72898 | 30.98485 | 9033 ft | 287 kts | 93° |
| 2026-05-06 17:03 | 36.72699 | 31.00993 | 9885 ft | 290 kts | 93° |
| 2026-05-06 17:03 | 36.72494 | 31.03522 | 10538 ft | 298 kts | 93° |
| 2026-05-06 17:04 | 36.72401 | 31.06130 | 10916 ft | 312 kts | 81° |
| 2026-05-06 17:04 | 36.73028 | 31.08763 | 11227 ft | 324 kts | 59° |
| 2026-05-06 17:04 | 36.74440 | 31.10998 | 11549 ft | 336 kts | 37° |
| 2026-05-06 17:04 | 36.76491 | 31.12463 | 11860 ft | 348 kts | 16° |
| 2026-05-06 17:05 | 36.78918 | 31.12983 | 12228 ft | 361 kts | 4° |
| 2026-05-06 17:05 | 36.81450 | 31.13301 | 12811 ft | 369 kts | 4° |
| 2026-05-06 17:05 | 36.84023 | 31.13340 | 13557 ft | 371 kts | 351° |
| 2026-05-06 17:05 | 36.86506 | 31.12476 | 14301 ft | 372 kts | 335° |
| 2026-05-06 17:06 | 36.88717 | 31.10790 | 15023 ft | 374 kts | 323° |
| 2026-05-06 17:06 | 36.90776 | 31.08797 | 15759 ft | 376 kts | 322° |
| 2026-05-06 17:06 | 36.92843 | 31.06767 | 16456 ft | 379 kts | 322° |
| 2026-05-06 17:06 | 36.94924 | 31.04723 | 17150 ft | 382 kts | 322° |
| 2026-05-06 17:07 | 36.97024 | 31.02665 | 17852 ft | 385 kts | 322° |
| 2026-05-06 17:07 | 36.99142 | 31.00591 | 18516 ft | 388 kts | 322° |
| 2026-05-06 17:07 | 37.01268 | 30.98512 | 19100 ft | 391 kts | 322° |
| 2026-05-06 17:07 | 37.03415 | 30.96411 | 19689 ft | 393 kts | 322° |
| 2026-05-06 17:08 | 37.05580 | 30.94291 | 20282 ft | 396 kts | 322° |
| 2026-05-06 17:08 | 37.07757 | 30.92157 | 20889 ft | 398 kts | 322° |
| 2026-05-06 17:08 | 37.09944 | 30.90015 | 21479 ft | 400 kts | 322° |
| 2026-05-06 17:08 | 37.12150 | 30.87853 | 22049 ft | 404 kts | 322° |
| 2026-05-06 17:09 | 37.14372 | 30.85673 | 22593 ft | 407 kts | 322° |
| 2026-05-06 17:09 | 37.16608 | 30.83478 | 23140 ft | 410 kts | 322° |
| 2026-05-06 17:09 | 37.18866 | 30.81258 | 23678 ft | 413 kts | 322° |
| 2026-05-06 17:09 | 37.21137 | 30.79023 | 24132 ft | 417 kts | 321° |
| 2026-05-06 17:10 | 37.23426 | 30.76768 | 24624 ft | 419 kts | 321° |
| 2026-05-06 17:10 | 37.25812 | 30.74650 | 25105 ft | 422 kts | 328° |
| 2026-05-06 17:10 | 37.28453 | 30.73021 | 25576 ft | 425 kts | 337° |
| 2026-05-06 17:10 | 37.31290 | 30.71911 | 26031 ft | 430 kts | 345° |
| 2026-05-06 17:11 | 37.34246 | 30.71254 | 26474 ft | 433 kts | 348° |
| 2026-05-06 17:11 | 37.37242 | 30.70689 | 26928 ft | 436 kts | 349° |
| 2026-05-06 17:11 | 37.40270 | 30.70247 | 27332 ft | 440 kts | 352° |
| 2026-05-06 17:11 | 37.43338 | 30.69976 | 27756 ft | 444 kts | 353° |
| 2026-05-06 17:12 | 37.46429 | 30.69761 | 28183 ft | 447 kts | 354° |
| 2026-05-06 17:12 | 37.49541 | 30.69556 | 28644 ft | 448 kts | 354° |
| 2026-05-06 17:12 | 37.52611 | 30.69354 | 29265 ft | 447 kts | 354° |
| 2026-05-06 17:12 | 37.55744 | 30.69145 | 30011 ft | 443 kts | 354° |
| 2026-05-06 17:13 | 37.58815 | 30.68942 | 30693 ft | 439 kts | 354° |
| 2026-05-06 17:13 | 37.61816 | 30.68755 | 31218 ft | 438 kts | 354° |
| 2026-05-06 17:13 | 37.64900 | 30.68564 | 31669 ft | 438 kts | 354° |
| 2026-05-06 17:13 | 37.67901 | 30.68377 | 32100 ft | 438 kts | 354° |
| 2026-05-06 17:14 | 37.70942 | 30.68186 | 32527 ft | 437 kts | 354° |
| 2026-05-06 17:14 | 37.73980 | 30.67995 | 32953 ft | 437 kts | 354° |
| 2026-05-06 17:14 | 37.77013 | 30.67804 | 33415 ft | 436 kts | 353° |
| 2026-05-06 17:14 | 37.80041 | 30.67650 | 33856 ft | 436 kts | 356° |
| 2026-05-06 17:15 | 37.83081 | 30.67739 | 34259 ft | 438 kts | 359° |
| 2026-05-06 17:15 | 37.86126 | 30.68100 | 34577 ft | 441 kts | 3° |
| 2026-05-06 17:15 | 37.89163 | 30.68736 | 34830 ft | 445 kts | 7° |
| 2026-05-06 17:15 | 37.92187 | 30.69657 | 35095 ft | 449 kts | 11° |
| 2026-05-06 17:16 | 37.95177 | 30.70864 | 35382 ft | 453 kts | 15° |
| 2026-05-06 17:16 | 37.98115 | 30.72359 | 35667 ft | 456 kts | 19° |
| 2026-05-06 17:16 | 38.01006 | 30.74014 | 35931 ft | 458 kts | 20° |
| 2026-05-06 17:16 | 38.03907 | 30.75699 | 36096 ft | 459 kts | 19° |
| 2026-05-06 17:17 | 38.06884 | 30.77156 | 36109 ft | 457 kts | 14° |
| 2026-05-06 17:17 | 38.13013 | 30.79071 | 36104 ft | 452 kts | 5° |
| 2026-05-06 17:18 | 38.19242 | 30.79659 | 36101 ft | 446 kts | 356° |
| 2026-05-06 17:18 | 38.25404 | 30.79022 | 36101 ft | 444 kts | 350° |
| 2026-05-06 17:19 | 38.31515 | 30.78014 | 36090 ft | 443 kts | 349° |
| 2026-05-06 17:19 | 38.37627 | 30.76990 | 36097 ft | 443 kts | 350° |
| 2026-05-06 17:20 | 38.43740 | 30.75973 | 36100 ft | 443 kts | 350° |
| 2026-05-06 17:20 | 38.49852 | 30.74956 | 36094 ft | 443 kts | 350° |
| 2026-05-06 17:21 | 38.55960 | 30.73938 | 36094 ft | 443 kts | 350° |
| 2026-05-06 17:21 | 38.62070 | 30.72918 | 36089 ft | 443 kts | 350° |
| 2026-05-06 17:22 | 38.68177 | 30.71895 | 36090 ft | 443 kts | 350° |
| 2026-05-06 17:22 | 38.74290 | 30.70871 | 36100 ft | 443 kts | 350° |
| 2026-05-06 17:23 | 38.80342 | 30.69518 | 36092 ft | 441 kts | 345° |
| 2026-05-06 17:23 | 38.86243 | 30.67408 | 36090 ft | 439 kts | 340° |
| 2026-05-06 17:24 | 38.91929 | 30.64562 | 36088 ft | 438 kts | 334° |
| 2026-05-06 17:24 | 38.97405 | 30.61122 | 36100 ft | 438 kts | 332° |
| 2026-05-06 17:25 | 39.02859 | 30.57565 | 36089 ft | 438 kts | 332° |
| 2026-05-06 17:25 | 39.08298 | 30.54010 | 36088 ft | 438 kts | 332° |
| 2026-05-06 17:26 | 39.13734 | 30.50453 | 36088 ft | 438 kts | 332° |
| 2026-05-06 17:26 | 39.19174 | 30.46887 | 36087 ft | 438 kts | 332° |
| 2026-05-06 17:27 | 39.24607 | 30.43318 | 36086 ft | 439 kts | 332° |
| 2026-05-06 17:27 | 39.30050 | 30.39737 | 36077 ft | 439 kts | 332° |
| 2026-05-06 17:28 | 39.35482 | 30.36157 | 36088 ft | 438 kts | 332° |
| 2026-05-06 17:28 | 39.40912 | 30.32571 | 36087 ft | 438 kts | 332° |
| 2026-05-06 17:29 | 39.46345 | 30.28977 | 36092 ft | 438 kts | 332° |
| 2026-05-06 17:29 | 39.51738 | 30.25428 | 36072 ft | 438 kts | 327° |
| 2026-05-06 17:30 | 39.56497 | 30.20419 | 36088 ft | 438 kts | 319° |
| 2026-05-06 17:30 | 39.61057 | 30.15179 | 36084 ft | 437 kts | 319° |
| 2026-05-06 17:31 | 39.64852 | 30.10835 | 36072 ft | 437 kts | 319° |
| 2026-05-06 17:31 | 39.69420 | 30.05620 | 36076 ft | 437 kts | 319° |
| 2026-05-06 17:32 | 39.73984 | 30.00411 | 36086 ft | 437 kts | 319° |
| 2026-05-06 17:32 | 39.78549 | 29.95194 | 36079 ft | 438 kts | 319° |
| 2026-05-06 17:33 | 39.83122 | 29.89963 | 36076 ft | 438 kts | 319° |
| 2026-05-06 17:33 | 39.87692 | 29.84725 | 36072 ft | 437 kts | 319° |
| 2026-05-06 17:34 | 39.92261 | 29.79477 | 36071 ft | 436 kts | 319° |
| 2026-05-06 17:34 | 39.96811 | 29.74244 | 36070 ft | 436 kts | 319° |
| 2026-05-06 17:35 | 40.01366 | 29.68995 | 36062 ft | 436 kts | 319° |
| 2026-05-06 17:35 | 40.05912 | 29.63746 | 36066 ft | 436 kts | 320° |
| 2026-05-06 17:36 | 40.12687 | 29.55906 | 36042 ft | 436 kts | 319° |
| 2026-05-06 17:36 | 40.17224 | 29.50644 | 36034 ft | 434 kts | 319° |
| 2026-05-06 17:37 | 40.21738 | 29.45398 | 36039 ft | 434 kts | 319° |
| 2026-05-06 17:37 | 40.26251 | 29.40145 | 36042 ft | 434 kts | 319° |
| 2026-05-06 17:38 | 40.30764 | 29.34881 | 36044 ft | 434 kts | 319° |
| 2026-05-06 17:38 | 40.35294 | 29.29586 | 36044 ft | 434 kts | 319° |
| 2026-05-06 17:39 | 40.39809 | 29.24301 | 36025 ft | 434 kts | 319° |
| 2026-05-06 17:39 | 40.44317 | 29.19014 | 36047 ft | 434 kts | 319° |
| 2026-05-06 17:40 | 40.48815 | 29.13726 | 36047 ft | 433 kts | 319° |
| 2026-05-06 17:40 | 40.53308 | 29.08437 | 36053 ft | 433 kts | 319° |
| 2026-05-06 17:41 | 40.57796 | 29.03143 | 36049 ft | 433 kts | 319° |
| 2026-05-06 17:41 | 40.62283 | 28.97840 | 36053 ft | 435 kts | 319° |
| 2026-05-06 17:42 | 40.66788 | 28.92507 | 36048 ft | 434 kts | 319° |
| 2026-05-06 17:42 | 40.71269 | 28.87190 | 36056 ft | 433 kts | 319° |
| 2026-05-06 17:43 | 40.75745 | 28.81870 | 36056 ft | 433 kts | 319° |
| 2026-05-06 17:43 | 40.80217 | 28.76544 | 36068 ft | 433 kts | 319° |
| 2026-05-06 17:44 | 40.84691 | 28.71206 | 36067 ft | 433 kts | 319° |
| 2026-05-06 17:44 | 40.89163 | 28.65859 | 36059 ft | 433 kts | 319° |
| 2026-05-06 17:45 | 40.93602 | 28.60540 | 36067 ft | 433 kts | 319° |
| 2026-05-06 17:45 | 40.98066 | 28.55186 | 36067 ft | 433 kts | 319° |
| 2026-05-06 17:46 | 41.02535 | 28.49815 | 36068 ft | 433 kts | 319° |
| 2026-05-06 17:46 | 41.06997 | 28.44440 | 36067 ft | 433 kts | 319° |
| 2026-05-06 17:47 | 41.11453 | 28.39063 | 36062 ft | 433 kts | 319° |
| 2026-05-06 17:47 | 41.15899 | 28.33686 | 36054 ft | 431 kts | 319° |
| 2026-05-06 17:48 | 41.20327 | 28.28322 | 36059 ft | 430 kts | 319° |
| 2026-05-06 17:48 | 41.24746 | 28.22959 | 36065 ft | 430 kts | 319° |
| 2026-05-06 17:49 | 41.29164 | 28.17586 | 36063 ft | 430 kts | 319° |
| 2026-05-06 17:49 | 41.33577 | 28.12210 | 36065 ft | 430 kts | 319° |
| 2026-05-06 17:50 | 41.37988 | 28.06824 | 36056 ft | 430 kts | 319° |
| 2026-05-06 17:50 | 41.42377 | 28.01455 | 36055 ft | 426 kts | 319° |
| 2026-05-06 17:51 | 41.46742 | 27.96104 | 36062 ft | 428 kts | 319° |
| 2026-05-06 17:51 | 41.51132 | 27.90714 | 36061 ft | 429 kts | 319° |
| 2026-05-06 17:52 | 41.55521 | 27.85316 | 36060 ft | 429 kts | 319° |
| 2026-05-06 17:52 | 41.59903 | 27.79915 | 36058 ft | 429 kts | 319° |
| 2026-05-06 17:53 | 41.64290 | 27.74496 | 36059 ft | 429 kts | 319° |
| 2026-05-06 17:53 | 41.68669 | 27.69077 | 36061 ft | 429 kts | 319° |
| 2026-05-06 17:54 | 41.73049 | 27.63646 | 36072 ft | 429 kts | 319° |
| 2026-05-06 17:54 | 41.77430 | 27.58206 | 36056 ft | 429 kts | 319° |
| 2026-05-06 17:55 | 41.81806 | 27.52756 | 36049 ft | 429 kts | 319° |
| 2026-05-06 17:55 | 41.86178 | 27.47301 | 36048 ft | 429 kts | 319° |
| 2026-05-06 17:56 | 41.90548 | 27.41838 | 36037 ft | 429 kts | 318° |
| 2026-05-06 17:56 | 41.94907 | 27.36378 | 36045 ft | 428 kts | 318° |
| 2026-05-06 17:57 | 41.99253 | 27.30912 | 36049 ft | 428 kts | 317° |
| 2026-05-06 17:57 | 42.03316 | 27.25051 | 36055 ft | 430 kts | 312° |
| 2026-05-06 17:58 | 42.06947 | 27.18603 | 36033 ft | 433 kts | 307° |
| 2026-05-06 17:58 | 42.10076 | 27.11677 | 36040 ft | 433 kts | 301° |
| 2026-05-06 17:59 | 42.12785 | 27.04400 | 36036 ft | 434 kts | 299° |
| 2026-05-06 17:59 | 42.15437 | 26.97088 | 36029 ft | 434 kts | 300° |
| 2026-05-06 18:00 | 42.18315 | 26.89953 | 36025 ft | 432 kts | 302° |
| 2026-05-06 18:00 | 42.21254 | 26.82864 | 36036 ft | 432 kts | 302° |
| 2026-05-06 18:01 | 42.24166 | 26.75820 | 36033 ft | 433 kts | 302° |
| 2026-05-06 18:01 | 42.27098 | 26.68709 | 36029 ft | 433 kts | 302° |
| 2026-05-06 18:02 | 42.30023 | 26.61596 | 36007 ft | 434 kts | 302° |
| 2026-05-06 18:02 | 42.32958 | 26.54440 | 36013 ft | 435 kts | 302° |
| 2026-05-06 18:03 | 42.35887 | 26.47279 | 36015 ft | 435 kts | 302° |
| 2026-05-06 18:03 | 42.38812 | 26.40109 | 36013 ft | 435 kts | 301° |
| 2026-05-06 18:04 | 42.41739 | 26.32924 | 36004 ft | 436 kts | 301° |
| 2026-05-06 18:04 | 42.44664 | 26.25718 | 36018 ft | 436 kts | 301° |
| 2026-05-06 18:05 | 42.47587 | 26.18501 | 36013 ft | 436 kts | 301° |
| 2026-05-06 18:05 | 42.50503 | 26.11281 | 36027 ft | 436 kts | 301° |
| 2026-05-06 18:06 | 42.53417 | 26.04053 | 36009 ft | 436 kts | 301° |
| 2026-05-06 18:06 | 42.56323 | 25.96826 | 36010 ft | 437 kts | 301° |
| 2026-05-06 18:07 | 42.59229 | 25.89577 | 36015 ft | 437 kts | 301° |
| 2026-05-06 18:07 | 42.62130 | 25.82323 | 36007 ft | 437 kts | 301° |
| 2026-05-06 18:08 | 42.65035 | 25.75054 | 36000 ft | 438 kts | 300° |
| 2026-05-06 18:08 | 42.67936 | 25.67761 | 35998 ft | 438 kts | 300° |
| 2026-05-06 18:09 | 42.70812 | 25.60514 | 35993 ft | 438 kts | 300° |
| 2026-05-06 18:09 | 42.73704 | 25.53208 | 35993 ft | 438 kts | 300° |
| 2026-05-06 18:10 | 42.76595 | 25.45899 | 35984 ft | 438 kts | 300° |
| 2026-05-06 18:10 | 42.79477 | 25.38579 | 35988 ft | 438 kts | 300° |
| 2026-05-06 18:11 | 42.81890 | 25.32438 | 35994 ft | 438 kts | 300° |
| 2026-05-06 18:11 | 42.85231 | 25.23915 | 35984 ft | 438 kts | 300° |
| 2026-05-06 18:12 | 42.88103 | 25.16572 | 35982 ft | 438 kts | 300° |
| 2026-05-06 18:12 | 42.90971 | 25.09216 | 35984 ft | 438 kts | 300° |
| 2026-05-06 18:13 | 42.93832 | 25.01861 | 35985 ft | 438 kts | 300° |
| 2026-05-06 18:13 | 42.96688 | 24.94503 | 35976 ft | 439 kts | 299° |
| 2026-05-06 18:14 | 42.99548 | 24.87114 | 35981 ft | 439 kts | 299° |
| 2026-05-06 18:14 | 43.02398 | 24.79728 | 35968 ft | 439 kts | 299° |
| 2026-05-06 18:15 | 43.05249 | 24.72321 | 35972 ft | 440 kts | 299° |
| 2026-05-06 18:15 | 43.08095 | 24.64914 | 35976 ft | 440 kts | 299° |
| 2026-05-06 18:16 | 43.10464 | 24.58736 | 35974 ft | 441 kts | 299° |
| 2026-05-06 18:16 | 43.13308 | 24.51286 | 35959 ft | 441 kts | 298° |
| 2026-05-06 18:17 | 43.16149 | 24.43831 | 35951 ft | 441 kts | 298° |
| 2026-05-06 18:17 | 43.18985 | 24.36371 | 35960 ft | 441 kts | 298° |
| 2026-05-06 18:18 | 43.21822 | 24.28893 | 35943 ft | 441 kts | 298° |
| 2026-05-06 18:18 | 43.24650 | 24.21408 | 35939 ft | 441 kts | 298° |
| 2026-05-06 18:19 | 43.27476 | 24.13914 | 35955 ft | 442 kts | 298° |
| 2026-05-06 18:19 | 43.30298 | 24.06414 | 35949 ft | 442 kts | 298° |
| 2026-05-06 18:20 | 43.33126 | 23.98876 | 35950 ft | 442 kts | 298° |
| 2026-05-06 18:20 | 43.35921 | 23.91401 | 35956 ft | 442 kts | 297° |
| 2026-05-06 18:21 | 43.38733 | 23.83863 | 35948 ft | 442 kts | 297° |
| 2026-05-06 18:21 | 43.41541 | 23.76322 | 35952 ft | 443 kts | 297° |
| 2026-05-06 18:22 | 43.44346 | 23.68763 | 35952 ft | 443 kts | 297° |
| 2026-05-06 18:22 | 43.47148 | 23.61186 | 35959 ft | 443 kts | 297° |
| 2026-05-06 18:23 | 43.49945 | 23.53606 | 35960 ft | 443 kts | 297° |
| 2026-05-06 18:23 | 43.52741 | 23.46017 | 35960 ft | 444 kts | 297° |
| 2026-05-06 18:24 | 43.55535 | 23.38407 | 35962 ft | 445 kts | 297° |
| 2026-05-06 18:24 | 43.58323 | 23.30788 | 35962 ft | 445 kts | 297° |
| 2026-05-06 18:25 | 43.61109 | 23.23156 | 35961 ft | 444 kts | 297° |
| 2026-05-06 18:25 | 43.63888 | 23.15526 | 35959 ft | 445 kts | 296° |
| 2026-05-06 18:26 | 43.66665 | 23.07877 | 35958 ft | 445 kts | 296° |
| 2026-05-06 18:26 | 43.69434 | 23.00226 | 35959 ft | 445 kts | 296° |
| 2026-05-06 18:27 | 43.72206 | 22.92545 | 35961 ft | 445 kts | 296° |
| 2026-05-06 18:27 | 43.74968 | 22.84878 | 35955 ft | 445 kts | 296° |
| 2026-05-06 18:28 | 43.77727 | 22.77189 | 35956 ft | 446 kts | 296° |
| 2026-05-06 18:28 | 43.80480 | 22.69496 | 35953 ft | 446 kts | 296° |
| 2026-05-06 18:29 | 43.83227 | 22.61793 | 35952 ft | 446 kts | 296° |
| 2026-05-06 18:29 | 43.85974 | 22.54076 | 35951 ft | 446 kts | 296° |
| 2026-05-06 18:30 | 43.88831 | 22.46426 | 35951 ft | 447 kts | 299° |
| 2026-05-06 18:30 | 43.92196 | 22.39167 | 35950 ft | 447 kts | 304° |
| 2026-05-06 18:31 | 43.96076 | 22.32409 | 35949 ft | 448 kts | 310° |
| 2026-05-06 18:31 | 44.00322 | 22.26160 | 35949 ft | 448 kts | 313° |
| 2026-05-06 18:32 | 44.04660 | 22.19933 | 35953 ft | 448 kts | 313° |
| 2026-05-06 18:32 | 44.08994 | 22.13698 | 35951 ft | 448 kts | 313° |
| 2026-05-06 18:33 | 44.13324 | 22.07449 | 35951 ft | 448 kts | 313° |
| 2026-05-06 18:33 | 44.17653 | 22.01190 | 35960 ft | 449 kts | 312° |
| 2026-05-06 18:34 | 44.21998 | 21.94888 | 35964 ft | 449 kts | 312° |
| 2026-05-06 18:34 | 44.26323 | 21.88597 | 35952 ft | 449 kts | 312° |
| 2026-05-06 18:35 | 44.30641 | 21.82305 | 35963 ft | 449 kts | 312° |
| 2026-05-06 18:35 | 44.34963 | 21.75999 | 35952 ft | 449 kts | 312° |
| 2026-05-06 18:36 | 44.39286 | 21.69671 | 35938 ft | 450 kts | 311° |
| 2026-05-06 18:36 | 44.43610 | 21.63324 | 35950 ft | 450 kts | 311° |
| 2026-05-06 18:37 | 44.47931 | 21.56970 | 35932 ft | 450 kts | 311° |
| 2026-05-06 18:37 | 44.52248 | 21.50609 | 35939 ft | 450 kts | 311° |
| 2026-05-06 18:38 | 44.56571 | 21.44223 | 35935 ft | 451 kts | 311° |
| 2026-05-06 18:38 | 44.60889 | 21.37824 | 35925 ft | 451 kts | 311° |
| 2026-05-06 18:39 | 44.65206 | 21.31415 | 35921 ft | 451 kts | 311° |
| 2026-05-06 18:40 | 44.71682 | 21.21777 | 35923 ft | 452 kts | 310° |
| 2026-05-06 18:40 | 44.75865 | 21.15175 | 35925 ft | 451 kts | 306° |
| 2026-05-06 18:41 | 44.79721 | 21.08215 | 35922 ft | 450 kts | 305° |
| 2026-05-06 18:41 | 44.83542 | 21.01213 | 35921 ft | 450 kts | 305° |
| 2026-05-06 18:42 | 44.87356 | 20.94219 | 35922 ft | 451 kts | 304° |
| 2026-05-06 18:42 | 44.91156 | 20.87229 | 35922 ft | 451 kts | 304° |
| 2026-05-06 18:43 | 44.95005 | 20.80129 | 35942 ft | 454 kts | 304° |
| 2026-05-06 18:43 | 44.96924 | 20.76582 | 36258 ft | 453 kts | 304° |
| 2026-05-06 18:43 | 44.98809 | 20.73099 | 36699 ft | 450 kts | 304° |
| 2026-05-06 18:43 | 45.00707 | 20.69586 | 37107 ft | 448 kts | 304° |
| 2026-05-06 18:44 | 45.02602 | 20.66080 | 37402 ft | 448 kts | 304° |
| 2026-05-06 18:44 | 45.04494 | 20.62568 | 37635 ft | 449 kts | 304° |
| 2026-05-06 18:44 | 45.06414 | 20.58998 | 37875 ft | 450 kts | 304° |
| 2026-05-06 18:45 | 45.10175 | 20.51993 | 37909 ft | 450 kts | 304° |
| 2026-05-06 18:45 | 45.13964 | 20.44922 | 37910 ft | 449 kts | 304° |
| 2026-05-06 18:46 | 45.17743 | 20.37856 | 37917 ft | 450 kts | 303° |
| 2026-05-06 18:46 | 45.21530 | 20.30754 | 37905 ft | 451 kts | 303° |
| 2026-05-06 18:47 | 45.25314 | 20.23637 | 37907 ft | 451 kts | 303° |
| 2026-05-06 18:47 | 45.29099 | 20.16503 | 37917 ft | 451 kts | 303° |
| 2026-05-06 18:48 | 45.32877 | 20.09365 | 37927 ft | 452 kts | 303° |
| 2026-05-06 18:48 | 45.36664 | 20.02192 | 37915 ft | 454 kts | 303° |
| 2026-05-06 18:49 | 45.40460 | 19.94981 | 37916 ft | 454 kts | 303° |
| 2026-05-06 18:49 | 45.44244 | 19.87774 | 37920 ft | 454 kts | 303° |
| 2026-05-06 18:50 | 45.48029 | 19.80551 | 37934 ft | 454 kts | 303° |
| 2026-05-06 18:50 | 45.51812 | 19.73311 | 37921 ft | 455 kts | 303° |
| 2026-05-06 18:51 | 45.55586 | 19.66072 | 37916 ft | 455 kts | 303° |
| 2026-05-06 18:51 | 45.59364 | 19.58806 | 37916 ft | 455 kts | 303° |
| 2026-05-06 18:52 | 45.63138 | 19.51528 | 37921 ft | 455 kts | 303° |
| 2026-05-06 18:52 | 45.66906 | 19.44242 | 37921 ft | 455 kts | 303° |
| 2026-05-06 18:53 | 45.70667 | 19.36951 | 37921 ft | 455 kts | 303° |
| 2026-05-06 18:53 | 45.74426 | 19.29644 | 37923 ft | 456 kts | 303° |
| 2026-05-06 18:54 | 45.78187 | 19.22314 | 37921 ft | 456 kts | 303° |
| 2026-05-06 18:54 | 45.81941 | 19.14980 | 37915 ft | 456 kts | 303° |
| 2026-05-06 18:55 | 45.85693 | 19.07627 | 37923 ft | 456 kts | 302° |
| 2026-05-06 18:55 | 45.89437 | 19.00269 | 37921 ft | 456 kts | 302° |
| 2026-05-06 18:56 | 45.93120 | 18.92854 | 37923 ft | 455 kts | 300° |
| 2026-05-06 18:56 | 45.96419 | 18.85119 | 37933 ft | 453 kts | 297° |
| 2026-05-06 18:57 | 45.99626 | 18.77331 | 37930 ft | 452 kts | 297° |
| 2026-05-06 18:57 | 46.02829 | 18.69527 | 37929 ft | 452 kts | 297° |
| 2026-05-06 18:58 | 46.06002 | 18.61783 | 37936 ft | 452 kts | 297° |
| 2026-05-06 18:58 | 46.09232 | 18.53884 | 37961 ft | 452 kts | 297° |
| 2026-05-06 18:59 | 46.12387 | 18.46148 | 37936 ft | 450 kts | 297° |
| 2026-05-06 18:59 | 46.15576 | 18.38300 | 37934 ft | 450 kts | 297° |
| 2026-05-06 19:00 | 46.18739 | 18.30496 | 37931 ft | 449 kts | 297° |
| 2026-05-06 19:00 | 46.21873 | 18.22742 | 37952 ft | 449 kts | 296° |
| 2026-05-06 19:01 | 46.25016 | 18.14944 | 37940 ft | 448 kts | 296° |
| 2026-05-06 19:01 | 46.28162 | 18.07116 | 37935 ft | 448 kts | 296° |
| 2026-05-06 19:02 | 46.31287 | 17.99317 | 37929 ft | 448 kts | 296° |
| 2026-05-06 19:02 | 46.34411 | 17.91502 | 37929 ft | 448 kts | 296° |
| 2026-05-06 19:03 | 46.37004 | 17.84995 | 37929 ft | 449 kts | 296° |
| 2026-05-06 19:03 | 46.40134 | 17.77122 | 37918 ft | 449 kts | 296° |
| 2026-05-06 19:04 | 46.43246 | 17.69274 | 37920 ft | 449 kts | 296° |
| 2026-05-06 19:04 | 46.46356 | 17.61408 | 37911 ft | 448 kts | 296° |
| 2026-05-06 19:05 | 46.49455 | 17.53541 | 37910 ft | 449 kts | 296° |
| 2026-05-06 19:05 | 46.52554 | 17.45655 | 37897 ft | 449 kts | 296° |
| 2026-05-06 19:06 | 46.55649 | 17.37760 | 37903 ft | 449 kts | 296° |
| 2026-05-06 19:06 | 46.58739 | 17.29851 | 37902 ft | 449 kts | 296° |
| 2026-05-06 19:07 | 46.61820 | 17.21944 | 37922 ft | 449 kts | 296° |
| 2026-05-06 19:07 | 46.64876 | 17.14082 | 37908 ft | 449 kts | 296° |
| 2026-05-06 19:08 | 46.67944 | 17.06159 | 37904 ft | 448 kts | 296° |
| 2026-05-06 19:08 | 46.71003 | 16.98236 | 37901 ft | 449 kts | 296° |
| 2026-05-06 19:09 | 46.74061 | 16.90295 | 37895 ft | 449 kts | 296° |
| 2026-05-06 19:09 | 46.77114 | 16.82356 | 37892 ft | 448 kts | 295° |
| 2026-05-06 19:10 | 46.80161 | 16.74392 | 37875 ft | 449 kts | 295° |
| 2026-05-06 19:10 | 46.83199 | 16.66427 | 37862 ft | 449 kts | 295° |
| 2026-05-06 19:11 | 46.86234 | 16.58447 | 37858 ft | 448 kts | 295° |
| 2026-05-06 19:11 | 46.89265 | 16.50465 | 37857 ft | 449 kts | 294° |
| 2026-05-06 19:12 | 46.92293 | 16.42459 | 37855 ft | 450 kts | 294° |
| 2026-05-06 19:12 | 46.95314 | 16.34437 | 37861 ft | 449 kts | 294° |
| 2026-05-06 19:13 | 46.98328 | 16.26411 | 37847 ft | 449 kts | 294° |
| 2026-05-06 19:13 | 47.01304 | 16.18328 | 37845 ft | 449 kts | 293° |
| 2026-05-06 19:14 | 47.04152 | 16.10182 | 37846 ft | 448 kts | 292° |
| 2026-05-06 19:14 | 47.06993 | 16.02021 | 37846 ft | 448 kts | 292° |
| 2026-05-06 19:15 | 47.09837 | 15.93849 | 37842 ft | 448 kts | 292° |
| 2026-05-06 19:15 | 47.12671 | 15.85689 | 37843 ft | 449 kts | 292° |
| 2026-05-06 19:16 | 47.15511 | 15.77500 | 37851 ft | 449 kts | 292° |
| 2026-05-06 19:16 | 47.18343 | 15.69292 | 37844 ft | 450 kts | 292° |
| 2026-05-06 19:17 | 47.21150 | 15.61131 | 37840 ft | 450 kts | 292° |
| 2026-05-06 19:17 | 47.23991 | 15.52848 | 37842 ft | 450 kts | 291° |
| 2026-05-06 19:18 | 47.26790 | 15.44672 | 37847 ft | 450 kts | 291° |
| 2026-05-06 19:18 | 47.29623 | 15.36363 | 37835 ft | 451 kts | 291° |
| 2026-05-06 19:19 | 47.32430 | 15.28098 | 37839 ft | 451 kts | 291° |
| 2026-05-06 19:19 | 47.33833 | 15.23958 | 37679 ft | 451 kts | 291° |
| 2026-05-06 19:19 | 47.35237 | 15.19812 | 37401 ft | 451 kts | 291° |
| 2026-05-06 19:19 | 47.36619 | 15.15721 | 37125 ft | 451 kts | 291° |
| 2026-05-06 19:20 | 47.38021 | 15.11567 | 36910 ft | 452 kts | 291° |
| 2026-05-06 19:20 | 47.39425 | 15.07412 | 36634 ft | 450 kts | 290° |
| 2026-05-06 19:20 | 47.40834 | 15.03231 | 36361 ft | 448 kts | 290° |
| 2026-05-06 19:20 | 47.42222 | 14.99095 | 36104 ft | 447 kts | 290° |
| 2026-05-06 19:21 | 47.43602 | 14.94977 | 35868 ft | 447 kts | 290° |
| 2026-05-06 19:21 | 47.46338 | 14.86791 | 35824 ft | 447 kts | 290° |
| 2026-05-06 19:22 | 47.49083 | 14.78550 | 35712 ft | 444 kts | 290° |
| 2026-05-06 19:22 | 47.50447 | 14.74451 | 35168 ft | 444 kts | 290° |
| 2026-05-06 19:22 | 47.51827 | 14.70313 | 34305 ft | 451 kts | 289° |
| 2026-05-06 19:22 | 47.53214 | 14.66127 | 33469 ft | 455 kts | 289° |
| 2026-05-06 19:23 | 47.54612 | 14.61895 | 32578 ft | 458 kts | 289° |
| 2026-05-06 19:23 | 47.56013 | 14.57643 | 31701 ft | 461 kts | 290° |
| 2026-05-06 19:23 | 47.57424 | 14.53355 | 30812 ft | 464 kts | 290° |
| 2026-05-06 19:23 | 47.58844 | 14.49039 | 29979 ft | 468 kts | 290° |
| 2026-05-06 19:24 | 47.60275 | 14.44686 | 29054 ft | 470 kts | 290° |
| 2026-05-06 19:24 | 47.61704 | 14.40337 | 28295 ft | 468 kts | 290° |
| 2026-05-06 19:24 | 47.63130 | 14.35998 | 27613 ft | 466 kts | 290° |
| 2026-05-06 19:24 | 47.64540 | 14.31713 | 27202 ft | 458 kts | 290° |
| 2026-05-06 19:25 | 47.65920 | 14.27495 | 26715 ft | 452 kts | 290° |
| 2026-05-06 19:25 | 47.67283 | 14.23317 | 26217 ft | 447 kts | 290° |
| 2026-05-06 19:25 | 47.68628 | 14.19182 | 25756 ft | 443 kts | 290° |
| 2026-05-06 19:25 | 47.69964 | 14.15064 | 25308 ft | 440 kts | 290° |
| 2026-05-06 19:26 | 47.71287 | 14.10978 | 24874 ft | 436 kts | 290° |
| 2026-05-06 19:26 | 47.72596 | 14.06939 | 24447 ft | 432 kts | 290° |
| 2026-05-06 19:26 | 47.73892 | 14.02934 | 24007 ft | 427 kts | 290° |
| 2026-05-06 19:26 | 47.75171 | 13.98975 | 23617 ft | 424 kts | 290° |
| 2026-05-06 19:27 | 47.76444 | 13.95026 | 23139 ft | 421 kts | 290° |
| 2026-05-06 19:27 | 47.77702 | 13.91114 | 22670 ft | 417 kts | 290° |
| 2026-05-06 19:27 | 47.78949 | 13.87235 | 22237 ft | 412 kts | 290° |
| 2026-05-06 19:27 | 47.80180 | 13.83401 | 21831 ft | 408 kts | 290° |
| 2026-05-06 19:28 | 47.81396 | 13.79605 | 21417 ft | 404 kts | 290° |
| 2026-05-06 19:28 | 47.82599 | 13.75847 | 21042 ft | 400 kts | 290° |
| 2026-05-06 19:28 | 47.83788 | 13.72128 | 20633 ft | 396 kts | 290° |
| 2026-05-06 19:28 | 47.84967 | 13.68429 | 20232 ft | 393 kts | 290° |
| 2026-05-06 19:29 | 47.86135 | 13.64760 | 19833 ft | 391 kts | 290° |
| 2026-05-06 19:29 | 47.87294 | 13.61110 | 19456 ft | 388 kts | 290° |
| 2026-05-06 19:29 | 47.88448 | 13.57475 | 19046 ft | 387 kts | 290° |
| 2026-05-06 19:29 | 47.89592 | 13.53862 | 18641 ft | 385 kts | 290° |
| 2026-05-06 19:30 | 47.90743 | 13.50229 | 18238 ft | 383 kts | 290° |
| 2026-05-06 19:30 | 47.91881 | 13.46631 | 17815 ft | 382 kts | 290° |
| 2026-05-06 19:30 | 47.93011 | 13.43054 | 17381 ft | 380 kts | 290° |
| 2026-05-06 19:30 | 47.94133 | 13.39495 | 16985 ft | 377 kts | 290° |
| 2026-05-06 19:31 | 47.95244 | 13.35970 | 16592 ft | 373 kts | 290° |
| 2026-05-06 19:31 | 47.96344 | 13.32474 | 16210 ft | 371 kts | 290° |
| 2026-05-06 19:31 | 47.98520 | 13.25537 | 15449 ft | 366 kts | 290° |
| 2026-05-06 19:32 | 47.99596 | 13.22103 | 15052 ft | 364 kts | 290° |
| 2026-05-06 19:32 | 48.00672 | 13.18660 | 14656 ft | 363 kts | 290° |
| 2026-05-06 19:32 | 48.01813 | 13.15206 | 14427 ft | 379 kts | 294° |
| 2026-05-06 19:32 | 48.03118 | 13.11754 | 14177 ft | 381 kts | 294° |
| 2026-05-06 19:33 | 48.04309 | 13.08222 | 13939 ft | 379 kts | 291° |
| 2026-05-06 19:33 | 48.05448 | 13.04671 | 13717 ft | 377 kts | 291° |
| 2026-05-06 19:33 | 48.06578 | 13.01136 | 13430 ft | 376 kts | 291° |
| 2026-05-06 19:33 | 48.07712 | 12.97606 | 13049 ft | 374 kts | 291° |
| 2026-05-06 19:34 | 48.08849 | 12.94084 | 12694 ft | 372 kts | 291° |
| 2026-05-06 19:34 | 48.09974 | 12.90604 | 12314 ft | 370 kts | 291° |
| 2026-05-06 19:34 | 48.11092 | 12.87152 | 11908 ft | 367 kts | 291° |
| 2026-05-06 19:34 | 48.12192 | 12.83745 | 11347 ft | 358 kts | 292° |
| 2026-05-06 19:35 | 48.12906 | 12.81542 | 11080 ft | 352 kts | 292° |
| 2026-05-06 19:35 | 48.14327 | 12.77160 | 10670 ft | 346 kts | 292° |
| 2026-05-06 19:35 | 48.15369 | 12.73941 | 9994 ft | 338 kts | 292° |
| 2026-05-06 19:35 | 48.16380 | 12.70821 | 9626 ft | 319 kts | 292° |
| 2026-05-06 19:36 | 48.17309 | 12.67955 | 9545 ft | 293 kts | 291° |
| 2026-05-06 19:36 | 48.18160 | 12.65324 | 9490 ft | 280 kts | 291° |
| 2026-05-06 19:36 | 48.19015 | 12.62659 | 9459 ft | 278 kts | 291° |
| 2026-05-06 19:36 | 48.19853 | 12.60043 | 9389 ft | 278 kts | 291° |
| 2026-05-06 19:37 | 48.20687 | 12.57436 | 9135 ft | 277 kts | 291° |
| 2026-05-06 19:37 | 48.21514 | 12.54853 | 8651 ft | 272 kts | 291° |
| 2026-05-06 19:37 | 48.22326 | 12.52312 | 8583 ft | 272 kts | 291° |
| 2026-05-06 19:37 | 48.22878 | 12.50583 | 8492 ft | 271 kts | 291° |
| 2026-05-06 19:38 | 48.23969 | 12.47175 | 8310 ft | 270 kts | 291° |
| 2026-05-06 19:38 | 48.24769 | 12.44666 | 8168 ft | 269 kts | 291° |
| 2026-05-06 19:38 | 48.25587 | 12.42102 | 8019 ft | 268 kts | 291° |
| 2026-05-06 19:38 | 48.26379 | 12.39620 | 7851 ft | 266 kts | 291° |
| 2026-05-06 19:39 | 48.27178 | 12.37115 | 7689 ft | 265 kts | 291° |
| 2026-05-06 19:39 | 48.27971 | 12.34619 | 7428 ft | 264 kts | 292° |
| 2026-05-06 19:39 | 48.28766 | 12.32117 | 7152 ft | 263 kts | 292° |
| 2026-05-06 19:39 | 48.29552 | 12.29645 | 6865 ft | 261 kts | 292° |
| 2026-05-06 19:40 | 48.30331 | 12.27189 | 6591 ft | 259 kts | 292° |
| 2026-05-06 19:40 | 48.31104 | 12.24750 | 6309 ft | 257 kts | 292° |
| 2026-05-06 19:40 | 48.31868 | 12.22337 | 6016 ft | 255 kts | 292° |
| 2026-05-06 19:40 | 48.32626 | 12.19937 | 5725 ft | 253 kts | 292° |
| 2026-05-06 19:41 | 48.33379 | 12.17555 | 5452 ft | 251 kts | 293° |
| 2026-05-06 19:41 | 48.34135 | 12.15156 | 5170 ft | 249 kts | 293° |
| 2026-05-06 19:41 | 48.34869 | 12.12838 | 4981 ft | 241 kts | 293° |
| 2026-05-06 19:41 | 48.35565 | 12.10641 | 4969 ft | 225 kts | 293° |
| 2026-05-06 19:42 | 48.36164 | 12.08558 | 4957 ft | 209 kts | 283° |
| 2026-05-06 19:42 | 48.36335 | 12.06458 | 4921 ft | 200 kts | 270° |
| 2026-05-06 19:42 | 48.36285 | 12.04384 | 4701 ft | 196 kts | 268° |
| 2026-05-06 19:42 | 48.36181 | 12.02381 | 4446 ft | 186 kts | 266° |
| 2026-05-06 19:43 | 48.36051 | 12.00497 | 4173 ft | 175 kts | 265° |
| 2026-05-06 19:43 | 48.35914 | 11.98727 | 3914 ft | 163 kts | 265° |
| 2026-05-06 19:43 | 48.35784 | 11.97103 | 3687 ft | 151 kts | 265° |
| 2026-05-06 19:43 | 48.35661 | 11.95545 | 3514 ft | 150 kts | 265° |
| 2026-05-06 19:44 | 48.35536 | 11.93981 | 3333 ft | 150 kts | 265° |
| 2026-05-06 19:44 | 48.35412 | 11.92414 | 3145 ft | 150 kts | 265° |
| 2026-05-06 19:44 | 48.35289 | 11.90860 | 2950 ft | 149 kts | 264° |
| 2026-05-06 19:44 | 48.35168 | 11.89310 | 2748 ft | 149 kts | 264° |
| 2026-05-06 19:45 | 48.35047 | 11.87759 | 2516 ft | 148 kts | 263° |
| 2026-05-06 19:45 | 48.34928 | 11.86223 | 2257 ft | 148 kts | 263° |
| 2026-05-06 19:45 | 48.34819 | 11.84693 | 2046 ft | 146 kts | 262° |
| 2026-05-06 19:45 | 48.34708 | 11.83173 | 1831 ft | 146 kts | 262° |
| 2026-05-06 19:46 | 48.34580 | 11.81661 | 1645 ft | 145 kts | 262° |
| 2026-05-06 19:46 | 48.34454 | 11.80164 | 1495 ft | 138 kts | 263° |
| 2026-05-06 19:46 | 48.34370 | 11.79009 | 1494 ft | 82 kts | 263° |
| 2026-05-06 19:46 | 48.34319 | 11.78376 | 1487 ft | 43 kts | 263° |
| 2026-05-06 19:47 | 48.34311 | 11.78045 | 1491 ft | 27 kts | 280° |
| 2026-05-06 19:47 | 48.34348 | 11.77877 | 1487 ft | 21 kts | 293° |
| 2026-05-06 19:47 | 48.34399 | 11.77696 | 1483 ft | 19 kts | 294° |
| 2026-05-06 19:47 | 48.34432 | 11.77585 | 1481 ft | 0 kts | 294° |
| 2026-05-06 19:48 | 48.34434 | 11.77579 | 1481 ft | 2 kts | 294° |
| 2026-05-06 19:48 | 48.34447 | 11.77534 | 1482 ft | 7 kts | 294° |
| 2026-05-06 19:48 | 48.34468 | 11.77480 | 1486 ft | 10 kts | 312° |
| 2026-05-06 19:48 | 48.34554 | 11.77432 | 1490 ft | 16 kts | 351° |
| 2026-05-06 19:49 | 48.34638 | 11.77522 | 1479 ft | 18 kts | 76° |
| 2026-05-06 19:49 | 48.34653 | 11.77725 | 1480 ft | 21 kts | 84° |
| 2026-05-06 19:49 | 48.34668 | 11.77952 | 1489 ft | 23 kts | 84° |
| 2026-05-06 19:49 | 48.34687 | 11.78198 | 1485 ft | 25 kts | 83° |
| 2026-05-06 19:50 | 48.34708 | 11.78463 | 1490 ft | 26 kts | 83° |
| 2026-05-06 19:50 | 48.34729 | 11.78740 | 1490 ft | 27 kts | 83° |
| 2026-05-06 19:50 | 48.34752 | 11.79030 | 1486 ft | 28 kts | 83° |
| 2026-05-06 19:50 | 48.34773 | 11.79303 | 1485 ft | 17 kts | 83° |
| 2026-05-06 19:51 | 48.34776 | 11.79348 | 1487 ft | 0 kts | 83° |
| 2026-05-06 19:51 | 48.34776 | 11.79349 | 1487 ft | 0 kts | 83° |
| 2026-05-06 19:52 | 48.34780 | 11.79391 | 1491 ft | 9 kts | 83° |
| 2026-05-06 19:52 | 48.34790 | 11.79499 | 1486 ft | 12 kts | 71° |
| 2026-05-06 19:52 | 48.34865 | 11.79551 | 1481 ft | 14 kts | 356° |
| 2026-05-06 19:52 | 48.34912 | 11.79547 | 1508 ft | 0 kts | 356° |
| 2026-05-06 19:53 | 48.34925 | 11.79546 | 1505 ft | 3 kts | 356° |
| 2026-05-06 19:53 | 48.34935 | 11.79545 | 1481 ft | 0 kts | 356° |
| 2026-05-06 19:53 | 48.34951 | 11.79547 | 1487 ft | 3 kts | 17° |
| 2026-05-06 19:53 | 48.34982 | 11.79567 | 1484 ft | 6 kts | 24° |
| 2026-05-06 19:54 | 48.35036 | 11.79586 | 1485 ft | 10 kts | 3° |
| 2026-05-06 19:54 | 48.35113 | 11.79580 | 1492 ft | 12 kts | 355° |
| 2026-05-06 19:54 | 48.35204 | 11.79564 | 1494 ft | 14 kts | 352° |
| 2026-05-06 19:54 | 48.35309 | 11.79544 | 1481 ft | 17 kts | 354° |
| 2026-05-06 19:55 | 48.35374 | 11.79534 | 1488 ft | 0 kts | 354° |
| 2026-05-06 19:55 | 48.35378 | 11.79534 | 1489 ft | 1 kts | 354° |
| 2026-05-06 19:55 | 48.35379 | 11.79533 | 1490 ft | 0 kts | 354° |
| 2026-05-06 19:55 | 48.35384 | 11.79533 | 1491 ft | 1 kts | 354° |
| 2026-05-06 19:56 | 48.35386 | 11.79532 | 1492 ft | 2 kts | 354° |
| 2026-05-06 19:56 | 48.35401 | 11.79530 | 1494 ft | 0 kts | 354° |
| 2026-05-06 19:57 | 48.35409 | 11.79530 | 1494 ft | 2 kts | 1° |
| 2026-05-06 19:57 | 48.35430 | 11.79539 | 1492 ft | 4 kts | 29° |
| 2026-05-06 19:57 | 48.35454 | 11.79587 | 1484 ft | 7 kts | 71° |
| 2026-05-06 19:57 | 48.35463 | 11.79663 | 1489 ft | 6 kts | 82° |
| 2026-05-06 19:58 | 48.35467 | 11.79710 | 1494 ft | 3 kts | 84° |
| 2026-05-06 19:58 | 48.35468 | 11.79727 | 1494 ft | 0 kts | 84° |